Time;durP1;ratioP1;P1;durP2;ratioP2;P2;SDS_P1;SDS_P2;PMS_P1;PMS_P2;Temp;Humidity;BMP_temperature;BMP_pressure;BME280_temperature;BME280_humidity;BME280_pressure;Samples;Min_cycle;Max_cycle;Signal;HPM_P1;HPM_P2
2022/02/04 00:23:37;;;;;;;0.25;0.25;;;;;;;;;;4167660;28;20060;-32
2022/02/04 00:25:51;;;;;;;0.30;0.30;;;;;;;;;;4167076;28;20061;-32
2022/02/04 00:27:55;;;;;;;0.20;0.20;;;;;;;;;;4167256;28;20060;-32
2022/02/04 00:30:12;;;;;;;0.20;0.20;;;;;;;;;;4167040;28;20328;-32
2022/02/04 00:32:14;;;;;;;0.20;0.20;;;;;;;;;;4166537;28;20486;-32
2022/02/04 00:34:19;;;;;;;0.63;0.20;;;;;;;;;;4167058;28;20512;-33
2022/02/04 00:36:27;;;;;;;0.20;0.20;;;;;;;;;;4166998;28;20061;-33
2022/02/04 00:38:32;;;;;;;0.20;0.20;;;;;;;;;;4167055;28;20508;-32
2022/02/04 00:40:38;;;;;;;0.20;0.20;;;;;;;;;;4166949;28;20058;-32
2022/02/04 00:42:39;;;;;;;0.30;0.25;;;;;;;;;;4166902;28;20099;-32
2022/02/04 00:44:42;;;;;;;0.30;0.20;;;;;;;;;;4166897;28;20058;-32
2022/02/04 00:47:07;;;;;;;0.20;0.20;;;;;;;;;;4166223;28;20057;-33
2022/02/04 00:49:20;;;;;;;0.30;0.30;;;;;;;;;;4181459;28;20057;-32
2022/02/04 00:51:38;;;;;;;0.40;0.30;;;;;;;;;;4183484;28;20053;-32
2022/02/04 00:53:56;;;;;;;0.28;0.28;;;;;;;;;;4182198;28;20397;-32
2022/02/04 00:56:23;;;;;;;0.30;0.20;;;;;;;;;;4183209;28;20098;-33
2022/02/04 01:26:19;;;;;;;0.20;0.20;;;;;;;;;;4182952;28;19986;-32
2022/02/04 01:28:24;;;;;;;0.20;0.10;;;;;;;;;;4182721;28;20076;-32
2022/02/04 01:30:31;;;;;;;0.20;0.20;;;;;;;;;;4182463;28;20537;-32
2022/02/04 01:32:34;;;;;;;0.77;0.40;;;;;;;;;;4181869;28;20102;-32
2022/02/04 01:34:35;;;;;;;0.20;0.20;;;;;;;;;;4182586;28;20492;-33
2022/02/04 01:36:36;;;;;;;0.25;0.25;;;;;;;;;;4182776;28;20061;-32
2022/02/04 01:38:37;;;;;;;0.20;0.20;;;;;;;;;;4181341;28;20057;-33
2022/02/04 01:40:38;;;;;;;0.20;0.10;;;;;;;;;;4182456;28;20492;-32
2022/02/04 01:42:40;;;;;;;0.10;0.10;;;;;;;;;;4181638;28;20064;-32
2022/02/04 01:44:41;;;;;;;0.20;0.20;;;;;;;;;;4182747;28;20049;-32
2022/02/04 01:46:42;;;;;;;0.32;0.20;;;;;;;;;;4182045;28;20116;-32
2022/02/04 01:48:43;;;;;;;0.25;0.22;;;;;;;;;;4182383;28;20493;-32
2022/02/04 01:50:46;;;;;;;0.30;0.20;;;;;;;;;;4180970;28;20091;-33
2022/02/04 01:52:47;;;;;;;0.10;0.10;;;;;;;;;;4182425;28;20061;-32
2022/02/04 01:54:49;;;;;;;0.20;0.20;;;;;;;;;;4182380;28;20515;-32
2022/02/04 01:56:50;;;;;;;0.32;0.30;;;;;;;;;;4182404;28;20103;-32
2022/02/04 01:58:52;;;;;;;0.20;0.20;;;;;;;;;;4182093;28;20156;-32
2022/02/04 02:00:53;;;;;;;0.17;0.17;;;;;;;;;;4182035;28;20057;-32
2022/02/04 02:02:54;;;;;;;0.32;0.20;;;;;;;;;;4182209;28;20061;-32
2022/02/04 02:04:55;;;;;;;0.15;0.15;;;;;;;;;;4181464;28;20106;-32
2022/02/04 02:06:59;;;;;;;0.10;0.10;;;;;;;;;;4181557;28;20057;-32
2022/02/04 02:09:00;;;;;;;0.20;0.20;;;;;;;;;;4181472;28;20056;-32
2022/02/04 02:11:02;;;;;;;0.30;0.20;;;;;;;;;;4181577;28;20398;-32
2022/02/04 02:33:59;;;;;;;0.98;0.20;;;;;;;;;;4181383;28;20069;-32
2022/02/04 02:42:50;;;;;;;0.20;0.20;;;;;;;;;;4181120;28;20395;-32
2022/02/04 02:58:20;;;;;;;0.15;0.15;;;;;;;;;;4163500;28;20068;-32
2022/02/04 03:02:34;;;;;;;0.20;0.20;;;;;;;;;;4164529;28;20049;-32
2022/02/04 03:04:35;;;;;;;0.30;0.30;;;;;;;;;;4165037;28;20080;-33
2022/02/04 03:06:37;;;;;;;0.10;0.10;;;;;;;;;;4164697;28;20111;-32
2022/02/04 03:08:38;;;;;;;0.20;0.20;;;;;;;;;;4165038;28;20065;-33
2022/02/04 03:10:39;;;;;;;0.30;0.20;;;;;;;;;;4164607;28;20107;-32
2022/02/04 03:12:42;;;;;;;0.20;0.20;;;;;;;;;;4179903;28;20075;-32
2022/02/04 03:14:43;;;;;;;0.30;0.30;;;;;;;;;;4163392;28;20144;-33
2022/02/04 03:16:45;;;;;;;0.10;0.10;;;;;;;;;;4162878;28;20501;-32
2022/02/04 03:18:50;;;;;;;0.20;0.10;;;;;;;;;;4164702;28;20087;-32
2022/02/04 03:20:55;;;;;;;0.13;0.10;;;;;;;;;;4164464;28;20458;-32
2022/02/04 03:22:57;;;;;;;0.10;0.10;;;;;;;;;;4164570;28;20060;-32
2022/02/04 03:25:03;;;;;;;0.10;0.10;;;;;;;;;;4164748;28;20103;-33
2022/02/04 03:27:08;;;;;;;0.20;0.10;;;;;;;;;;4164506;28;20056;-32
2022/02/04 03:29:10;;;;;;;0.17;0.10;;;;;;;;;;4164307;28;20076;-32
2022/02/04 03:31:11;;;;;;;0.30;0.20;;;;;;;;;;4164084;28;20053;-32
2022/02/04 03:33:12;;;;;;;0.20;0.20;;;;;;;;;;4164744;28;20061;-32
2022/02/04 03:35:19;;;;;;;0.20;0.20;;;;;;;;;;4164426;28;20061;-32
2022/02/04 03:37:20;;;;;;;0.10;0.10;;;;;;;;;;4164228;28;20539;-32
2022/02/04 03:39:21;;;;;;;0.25;0.22;;;;;;;;;;4164249;28;20049;-32
2022/02/04 03:41:22;;;;;;;0.17;0.17;;;;;;;;;;4164323;28;20065;-32
2022/02/04 03:43:23;;;;;;;0.35;0.22;;;;;;;;;;4179591;28;20402;-32
2022/02/04 03:45:24;;;;;;;0.10;0.10;;;;;;;;;;4164622;28;20099;-32
2022/02/04 03:47:25;;;;;;;0.10;0.10;;;;;;;;;;4164030;28;20057;-32
2022/02/04 03:49:26;;;;;;;0.10;0.10;;;;;;;;;;4180723;28;20080;-32
2022/02/04 03:51:28;;;;;;;0.10;0.10;;;;;;;;;;4179437;28;20130;-32
2022/02/04 03:53:29;;;;;;;0.20;0.20;;;;;;;;;;4180732;28;20053;-32
2022/02/04 03:55:31;;;;;;;0.80;0.20;;;;;;;;;;4180581;28;20056;-32
2022/02/04 03:57:32;;;;;;;0.15;0.10;;;;;;;;;;4180545;28;20049;-32
2022/02/04 03:59:33;;;;;;;0.10;0.10;;;;;;;;;;4180131;28;20048;-32
2022/02/04 04:01:34;;;;;;;0.20;0.13;;;;;;;;;;4180119;28;20111;-32
2022/02/04 04:03:36;;;;;;;0.20;0.20;;;;;;;;;;4180173;28;20390;-32
2022/02/04 04:05:43;;;;;;;0.10;0.10;;;;;;;;;;4180033;28;20110;-32
2022/02/04 04:07:47;;;;;;;0.00;0.00;;;;;;;;;;4180376;28;20061;-32
2022/02/04 04:09:58;;;;;;;0.10;0.10;;;;;;;;;;4180384;28;20053;-32
2022/02/04 04:11:59;;;;;;;0.10;0.10;;;;;;;;;;4180422;28;20057;-32
2022/02/04 04:14:02;;;;;;;0.15;0.15;;;;;;;;;;4180480;28;20075;-32
2022/02/04 04:16:03;;;;;;;0.10;0.10;;;;;;;;;;4180085;28;20442;-32
2022/02/04 04:18:04;;;;;;;0.10;0.10;;;;;;;;;;4179569;28;20481;-32
2022/02/04 04:20:08;;;;;;;0.17;0.10;;;;;;;;;;4179252;28;20087;-32
2022/02/04 04:22:09;;;;;;;0.10;0.10;;;;;;;;;;4180340;28;20362;-32
2022/02/04 04:24:10;;;;;;;0.13;0.10;;;;;;;;;;4180680;28;20052;-32
2022/02/04 04:26:11;;;;;;;0.15;0.10;;;;;;;;;;4180320;28;20487;-32
2022/02/04 04:28:12;;;;;;;0.10;0.10;;;;;;;;;;4179987;28;20107;-32
2022/02/04 04:30:15;;;;;;;0.15;0.10;;;;;;;;;;4179737;28;20053;-33
2022/02/04 04:32:16;;;;;;;0.10;0.10;;;;;;;;;;4179359;28;20378;-32
2022/02/04 04:34:17;;;;;;;0.10;0.10;;;;;;;;;;4179996;28;20099;-32
2022/02/04 04:36:20;;;;;;;0.10;0.10;;;;;;;;;;4179768;28;20492;-32
2022/02/04 04:38:40;;;;;;;0.10;0.10;;;;;;;;;;4178525;28;20056;-32
2022/02/04 04:43:25;;;;;;;0.40;0.20;;;;;;;;;;4178523;28;20433;-32
2022/02/04 05:28:58;;;;;;;0.20;0.20;;;;;;;;;;4182242;28;20412;-32
2022/02/04 05:30:59;;;;;;;0.20;0.20;;;;;;;;;;4182169;28;20063;-32
2022/02/04 05:33:00;;;;;;;0.30;0.20;;;;;;;;;;4182600;28;20053;-32
2022/02/04 05:35:07;;;;;;;0.17;0.17;;;;;;;;;;4182694;28;20128;-32
2022/02/04 05:37:10;;;;;;;0.60;0.20;;;;;;;;;;4182315;28;20102;-32
2022/02/04 05:39:12;;;;;;;0.10;0.10;;;;;;;;;;4182370;28;20060;-33
2022/02/04 05:41:19;;;;;;;0.20;0.20;;;;;;;;;;4182470;28;20434;-32
2022/02/04 05:43:24;;;;;;;0.10;0.10;;;;;;;;;;4181352;28;20052;-32
2022/02/04 05:45:30;;;;;;;0.20;0.20;;;;;;;;;;4181962;28;20456;-32
2022/02/04 05:47:32;;;;;;;0.20;0.20;;;;;;;;;;4181782;28;20064;-32
2022/02/04 05:49:35;;;;;;;0.10;0.10;;;;;;;;;;4182501;28;20107;-32
2022/02/04 05:51:46;;;;;;;0.20;0.20;;;;;;;;;;4182064;28;20057;-32
2022/02/04 06:03:13;;;;;;;0.10;0.10;;;;;;;;;;4182289;28;20504;-32
2022/02/04 06:05:44;;;;;;;0.15;0.13;;;;;;;;;;4182079;28;20045;-32
2022/02/04 06:23:25;;;;;;;0.28;0.20;;;;;;;;;;4181644;28;20114;-32
2022/02/04 06:25:26;;;;;;;1.10;0.20;;;;;;;;;;4163777;28;20583;-32
2022/02/04 06:27:27;;;;;;;0.20;0.20;;;;;;;;;;4181511;28;20099;-32
2022/02/04 06:29:29;;;;;;;0.10;0.10;;;;;;;;;;4181207;28;20485;-32
2022/02/04 06:31:30;;;;;;;0.40;0.30;;;;;;;;;;4179658;28;20464;-32
2022/02/04 06:33:31;;;;;;;0.20;0.20;;;;;;;;;;4180324;28;20057;-32
2022/02/04 06:35:34;;;;;;;0.13;0.13;;;;;;;;;;4181299;28;20060;-33
2022/02/04 06:37:37;;;;;;;0.35;0.22;;;;;;;;;;4181260;28;20057;-32
2022/02/04 06:39:38;;;;;;;0.52;0.30;;;;;;;;;;4181162;28;20338;-32
2022/02/04 06:41:40;;;;;;;0.25;0.17;;;;;;;;;;4181020;28;20106;-32
2022/02/04 06:43:41;;;;;;;0.68;0.20;;;;;;;;;;4181184;28;20536;-32
2022/02/04 06:45:42;;;;;;;0.65;0.20;;;;;;;;;;4180556;28;20056;-33
2022/02/04 06:47:43;;;;;;;0.25;0.25;;;;;;;;;;4180653;28;20130;-32
2022/02/04 06:49:45;;;;;;;0.30;0.30;;;;;;;;;;4180262;28;20103;-32
2022/02/04 06:51:46;;;;;;;0.85;0.30;;;;;;;;;;4178920;28;20087;-32
2022/02/04 06:53:47;;;;;;;0.40;0.40;;;;;;;;;;4180867;28;20118;-32
2022/02/04 06:55:48;;;;;;;0.15;0.15;;;;;;;;;;4180230;28;20057;-32
2022/02/04 06:57:49;;;;;;;0.35;0.30;;;;;;;;;;4179990;28;20432;-32
2022/02/04 06:59:52;;;;;;;0.63;0.30;;;;;;;;;;4181042;28;20095;-32
2022/02/04 07:01:54;;;;;;;1.73;0.25;;;;;;;;;;4178785;28;20057;-32
2022/02/04 07:03:55;;;;;;;0.22;0.20;;;;;;;;;;4179638;28;20057;-32
2022/02/04 07:05:58;;;;;;;0.88;0.25;;;;;;;;;;4180905;28;20049;-32
2022/02/04 07:08:09;;;;;;;0.40;0.25;;;;;;;;;;4180578;28;20052;-32
2022/02/04 07:10:32;;;;;;;0.50;0.30;;;;;;;;;;4180421;28;20473;-32
2022/02/04 07:12:35;;;;;;;0.40;0.20;;;;;;;;;;4180470;28;20107;-32
2022/02/04 07:21:34;;;;;;;0.60;0.30;;;;;;;;;;4168409;28;20289;-32
2022/02/04 07:23:36;;;;;;;0.52;0.30;;;;;;;;;;4178295;28;20489;-32
2022/02/04 07:25:37;;;;;;;0.30;0.30;;;;;;;;;;4179525;28;20090;-32
2022/02/04 07:27:40;;;;;;;0.35;0.28;;;;;;;;;;4173852;28;20057;-32
2022/02/04 07:29:43;;;;;;;0.65;0.20;;;;;;;;;;4171527;28;20049;-32
2022/02/04 07:31:46;;;;;;;0.32;0.20;;;;;;;;;;4172539;28;20056;-32
2022/02/04 07:33:52;;;;;;;1.95;0.35;;;;;;;;;;4176442;28;20110;-32
2022/02/04 07:42:40;;;;;;;0.25;0.20;;;;;;;;;;4179783;28;20183;-33
2022/02/04 07:44:41;;;;;;;0.82;0.30;;;;;;;;;;4173507;28;20096;-33
2022/02/04 07:46:42;;;;;;;0.28;0.28;;;;;;;;;;4172667;28;20098;-33
2022/02/04 07:48:43;;;;;;;0.25;0.25;;;;;;;;;;4182955;28;20048;-35
2022/02/04 07:50:46;;;;;;;1.10;0.40;;;;;;;;;;4185176;28;20412;-42
2022/02/04 07:52:51;;;;;;;0.35;0.30;;;;;;;;;;4194679;28;20048;-43
2022/02/04 07:54:52;;;;;;;0.45;0.30;;;;;;;;;;4178408;28;20110;-42
2022/02/04 07:56:53;;;;;;;0.50;0.30;;;;;;;;;;4178901;28;20387;-43
2022/02/04 07:58:59;;;;;;;0.25;0.25;;;;;;;;;;4176151;28;20053;-44
2022/02/04 08:01:03;;;;;;;1.70;0.40;;;;;;;;;;4180182;28;20079;-43
2022/02/04 08:03:14;;;;;;;0.30;0.25;;;;;;;;;;4177706;28;20193;-44
2022/02/04 08:05:19;;;;;;;0.40;0.40;;;;;;;;;;4182196;28;20454;-42
2022/02/04 08:07:20;;;;;;;0.45;0.40;;;;;;;;;;4181260;28;20408;-44
2022/02/04 08:20:51;;;;;;;1.48;0.32;;;;;;;;;;4171940;28;20071;-42
2022/02/04 08:25:55;;;;;;;0.38;0.30;;;;;;;;;;4189270;28;20053;-43
2022/02/04 08:50:26;;;;;;;1.42;0.43;;;;;;;;;;4181250;28;20397;-42
2022/02/04 08:52:45;;;;;;;0.85;0.40;;;;;;;;;;4175121;28;20059;-42
2022/02/04 08:55:01;;;;;;;0.70;0.50;;;;;;;;;;4185606;28;20558;-43
2022/02/04 08:57:50;;;;;;;1.02;0.57;;;;;;;;;;4185698;28;20054;-42
2022/02/04 08:59:40;;;;;;;1.00;0.55;;;;;;;;;;4188819;28;20056;-43
2022/02/04 09:01:49;;;;;;;0.55;0.38;;;;;;;;;;4187520;28;20049;-42
2022/02/04 09:04:03;;;;;;;0.73;0.43;;;;;;;;;;4189615;28;20412;-43
2022/02/04 09:06:16;;;;;;;0.38;0.35;;;;;;;;;;4168017;28;20485;-42
2022/02/04 09:08:29;;;;;;;0.68;0.60;;;;;;;;;;4184803;28;20449;-42
2022/02/04 09:10:30;;;;;;;0.88;0.50;;;;;;;;;;4182727;28;20041;-42
2022/02/04 09:19:03;;;;;;;1.00;0.73;;;;;;;;;;4188130;28;19920;-42
2022/02/04 09:23:05;;;;;;;0.88;0.50;;;;;;;;;;4168238;28;20106;-42
2022/02/04 09:25:07;;;;;;;0.98;0.50;;;;;;;;;;4189168;28;20064;-42
2022/02/04 09:27:09;;;;;;;0.70;0.60;;;;;;;;;;4177728;28;20438;-43
2022/02/04 09:29:10;;;;;;;1.02;0.50;;;;;;;;;;4167918;28;20115;-42
2022/02/04 09:31:13;;;;;;;1.30;0.60;;;;;;;;;;4171820;28;20109;-42
2022/02/04 09:33:14;;;;;;;0.70;0.45;;;;;;;;;;4174317;28;20053;-42
2022/02/04 09:35:18;;;;;;;1.27;0.70;;;;;;;;;;4165556;28;20057;-43
2022/02/04 09:37:19;;;;;;;0.57;0.47;;;;;;;;;;4162441;28;20057;-42
2022/02/04 09:39:20;;;;;;;0.40;0.38;;;;;;;;;;4187167;28;20087;-43
2022/02/04 09:41:22;;;;;;;0.50;0.47;;;;;;;;;;4180515;28;20056;-41
2022/02/04 09:43:23;;;;;;;0.38;0.38;;;;;;;;;;4179498;28;20087;-42
2022/02/04 09:45:26;;;;;;;1.67;0.70;;;;;;;;;;4177196;28;20060;-43
2022/02/04 09:47:34;;;;;;;0.50;0.40;;;;;;;;;;4173890;28;20056;-43
2022/02/04 09:49:41;;;;;;;0.77;0.60;;;;;;;;;;4178990;28;20083;-43
2022/02/04 10:12:36;;;;;;;0.63;0.60;;;;;;;;;;4181425;28;20515;-43
2022/02/04 10:14:53;;;;;;;1.42;0.60;;;;;;;;;;4171891;28;20079;-43
2022/02/04 10:21:35;;;;;;;0.90;0.52;;;;;;;;;;4152935;28;20103;-42
2022/02/04 10:23:59;;;;;;;0.70;0.30;;;;;;;;;;4186372;28;20434;-42
2022/02/04 10:26:07;;;;;;;0.47;0.45;;;;;;;;;;4170187;28;20126;-43
2022/02/04 10:28:26;;;;;;;0.82;0.40;;;;;;;;;;4195281;28;20110;-42
2022/02/04 10:30:31;;;;;;;0.95;0.40;;;;;;;;;;4188471;28;20052;-43
2022/02/04 10:32:32;;;;;;;0.82;0.60;;;;;;;;;;4174576;28;20061;-42
2022/02/04 10:34:35;;;;;;;0.70;0.40;;;;;;;;;;4180291;28;20132;-43
2022/02/04 10:36:53;;;;;;;0.47;0.40;;;;;;;;;;4182435;28;20111;-42
2022/02/04 10:38:54;;;;;;;0.70;0.40;;;;;;;;;;4176724;28;20107;-42
2022/02/04 10:50:15;;;;;;;0.50;0.45;;;;;;;;;;4171752;28;20379;-42
2022/02/04 10:57:13;;;;;;;0.68;0.40;;;;;;;;;;4182632;28;20512;-42
2022/02/04 11:03:31;;;;;;;0.32;0.32;;;;;;;;;;4187531;28;20057;-42
2022/02/04 11:05:47;;;;;;;0.60;0.40;;;;;;;;;;4178042;28;20566;-43
2022/02/04 11:08:10;;;;;;;0.55;0.40;;;;;;;;;;4166310;28;20049;-43
2022/02/04 11:10:42;;;;;;;0.38;0.38;;;;;;;;;;4171091;28;20057;-43
2022/02/04 11:32:58;;;;;;;0.32;0.32;;;;;;;;;;4179564;28;20339;-34
2022/02/04 11:34:39;;;;;;;0.60;0.40;;;;;;;;;;4170244;28;20052;-34
2022/02/04 11:49:40;;;;;;;0.50;0.30;;;;;;;;;;4179929;28;20060;-34
2022/02/04 11:51:34;;;;;;;0.40;0.35;;;;;;;;;;4173438;28;20087;-33
2022/02/04 11:55:59;;;;;;;0.25;0.25;;;;;;;;;;4172612;28;20492;-34
2022/02/04 11:58:04;;;;;;;0.40;0.20;;;;;;;;;;4170755;28;20501;-34
2022/02/04 12:00:26;;;;;;;1.95;0.30;;;;;;;;;;4191779;28;20536;-34
2022/02/04 12:02:30;;;;;;;0.63;0.40;;;;;;;;;;4172954;28;20095;-34
2022/02/04 12:04:31;;;;;;;0.47;0.25;;;;;;;;;;4174590;28;20563;-34
2022/02/04 12:06:33;;;;;;;0.20;0.20;;;;;;;;;;4167824;28;20053;-34
2022/02/04 12:08:34;;;;;;;0.22;0.22;;;;;;;;;;4165075;28;20500;-33
2022/02/04 12:10:42;;;;;;;0.30;0.30;;;;;;;;;;4170496;28;20053;-33
2022/02/04 12:12:53;;;;;;;0.50;0.32;;;;;;;;;;4184922;28;20385;-34
2022/02/04 12:14:54;;;;;;;0.57;0.30;;;;;;;;;;4179378;28;20057;-34
2022/02/04 12:17:06;;;;;;;0.50;0.20;;;;;;;;;;4180469;28;20067;-33
2022/02/04 12:19:11;;;;;;;0.38;0.30;;;;;;;;;;4176905;28;20064;-33
2022/02/04 12:21:15;;;;;;;0.20;0.20;;;;;;;;;;4178982;28;20401;-34
2022/02/04 12:23:32;;;;;;;0.35;0.20;;;;;;;;;;4182412;28;20057;-33
2022/02/04 12:25:55;;;;;;;0.30;0.30;;;;;;;;;;4179211;28;20107;-36
2022/02/04 12:27:57;;;;;;;0.20;0.20;;;;;;;;;;4166804;28;20056;-33
2022/02/04 12:29:59;;;;;;;0.35;0.20;;;;;;;;;;4180826;28;20133;-33
2022/02/04 12:32:00;;;;;;;0.52;0.30;;;;;;;;;;4179645;28;20060;-33
2022/02/04 12:34:01;;;;;;;1.38;0.40;;;;;;;;;;4180373;28;20053;-36
2022/02/04 12:36:02;;;;;;;0.20;0.20;;;;;;;;;;4172657;28;20111;-35
2022/02/04 12:38:03;;;;;;;0.22;0.22;;;;;;;;;;4174276;28;20049;-35
2022/02/04 12:40:07;;;;;;;0.40;0.30;;;;;;;;;;4182600;28;20111;-35
2022/02/04 12:42:10;;;;;;;0.43;0.20;;;;;;;;;;4197135;28;20393;-35
2022/02/04 12:44:14;;;;;;;0.60;0.30;;;;;;;;;;4194956;28;20052;-35
2022/02/04 12:46:16;;;;;;;0.60;0.20;;;;;;;;;;4181034;28;20158;-34
2022/02/04 12:48:19;;;;;;;0.30;0.10;;;;;;;;;;4195511;28;20068;-33
2022/02/04 12:50:25;;;;;;;0.32;0.32;;;;;;;;;;4187569;28;20044;-35
2022/02/04 12:52:41;;;;;;;0.32;0.20;;;;;;;;;;4168549;28;20092;-35
2022/02/04 12:54:58;;;;;;;0.45;0.30;;;;;;;;;;4184346;28;20083;-33
2022/02/04 13:10:42;;;;;;;0.20;0.20;;;;;;;;;;4171390;28;20049;-33
2022/02/04 13:12:55;;;;;;;0.20;0.20;;;;;;;;;;4176983;28;20064;-33
2022/02/04 13:14:56;;;;;;;0.13;0.13;;;;;;;;;;4178807;28;20057;-33
2022/02/04 13:16:57;;;;;;;0.20;0.20;;;;;;;;;;4181567;28;20381;-33
2022/02/04 13:19:02;;;;;;;0.13;0.10;;;;;;;;;;4181113;28;20061;-33
2022/02/04 13:21:03;;;;;;;0.20;0.20;;;;;;;;;;4182353;28;20114;-33
2022/02/04 13:23:35;;;;;;;0.20;0.13;;;;;;;;;;4182263;28;20119;-33
2022/02/04 13:25:42;;;;;;;0.10;0.10;;;;;;;;;;4180182;28;20099;-33
2022/02/04 13:27:59;;;;;;;0.47;0.20;;;;;;;;;;4181462;28;20402;-33
2022/02/04 13:30:20;;;;;;;0.20;0.15;;;;;;;;;;4181927;28;20107;-33
2022/02/04 13:32:23;;;;;;;0.20;0.20;;;;;;;;;;4180214;28;20146;-32
2022/02/04 13:34:28;;;;;;;0.35;0.20;;;;;;;;;;4181552;28;20111;-33
2022/02/04 13:36:35;;;;;;;0.10;0.10;;;;;;;;;;4181830;28;20056;-33
2022/02/04 13:38:47;;;;;;;0.20;0.20;;;;;;;;;;4180860;28;20065;-33
2022/02/04 13:41:07;;;;;;;0.28;0.17;;;;;;;;;;4182111;28;20171;-33
2022/02/04 13:43:31;;;;;;;0.20;0.20;;;;;;;;;;4180897;28;20087;-32
2022/02/04 13:45:40;;;;;;;0.38;0.10;;;;;;;;;;4181657;28;20065;-32
2022/02/04 13:47:52;;;;;;;0.20;0.10;;;;;;;;;;4182029;28;20389;-32
2022/02/04 13:50:26;;;;;;;0.30;0.17;;;;;;;;;;4181641;28;20382;-32
2022/02/04 13:54:58;;;;;;;0.22;0.10;;;;;;;;;;4181835;28;20061;-32
2022/02/04 13:57:32;;;;;;;0.15;0.10;;;;;;;;;;4180500;28;20057;-33
2022/02/04 13:59:47;;;;;;;0.20;0.20;;;;;;;;;;4181594;28;20130;-32
2022/02/04 14:01:56;;;;;;;0.10;0.10;;;;;;;;;;4180049;28;20358;-34
2022/02/04 14:04:00;;;;;;;0.20;0.20;;;;;;;;;;4181701;28;20057;-34
2022/02/04 14:06:07;;;;;;;0.10;0.10;;;;;;;;;;4181654;28;20466;-32
2022/02/04 14:08:13;;;;;;;0.45;0.20;;;;;;;;;;4181803;28;20102;-32
2022/02/04 14:10:16;;;;;;;0.10;0.10;;;;;;;;;;4182002;28;20064;-34
2022/02/04 14:12:20;;;;;;;0.20;0.20;;;;;;;;;;4181353;28;20539;-34
2022/02/04 14:14:23;;;;;;;0.25;0.20;;;;;;;;;;4181964;28;20107;-33
2022/02/04 14:16:25;;;;;;;0.20;0.20;;;;;;;;;;4181343;28;20074;-34
2022/02/04 14:18:28;;;;;;;0.68;0.20;;;;;;;;;;4181803;28;20110;-34
2022/02/04 14:20:29;;;;;;;0.13;0.10;;;;;;;;;;4180452;28;20160;-34
2022/02/04 14:22:30;;;;;;;0.20;0.10;;;;;;;;;;4181534;28;20057;-33
2022/02/04 14:24:32;;;;;;;0.10;0.10;;;;;;;;;;4181473;28;20049;-34
2022/02/04 14:26:37;;;;;;;0.15;0.10;;;;;;;;;;4181578;28;20056;-31
2022/02/04 14:31:06;;;;;;;0.30;0.20;;;;;;;;;;4180802;28;20068;-34
2022/02/04 14:33:14;;;;;;;0.47;0.10;;;;;;;;;;4181147;28;20074;-34
2022/02/04 14:35:29;;;;;;;0.10;0.10;;;;;;;;;;4180290;28;20465;-34
2022/02/04 14:49:32;;;;;;;0.10;0.10;;;;;;;;;;4179580;28;19921;-34
2022/02/04 14:51:48;;;;;;;0.30;0.17;;;;;;;;;;4179953;28;20072;-35
2022/02/04 14:54:11;;;;;;;0.40;0.10;;;;;;;;;;4179470;28;20101;-32
2022/02/04 15:00:51;;;;;;;0.35;0.20;;;;;;;;;;4178863;28;20041;-32
2022/02/04 15:03:13;;;;;;;0.10;0.10;;;;;;;;;;4179896;28;20107;-32
2022/02/04 15:05:19;;;;;;;0.13;0.13;;;;;;;;;;4171027;28;20056;-34
2022/02/04 15:07:20;;;;;;;0.25;0.25;;;;;;;;;;4180481;28;20087;-32
2022/02/04 15:09:21;;;;;;;0.20;0.20;;;;;;;;;;4180322;28;20056;-32
2022/02/04 15:11:29;;;;;;;0.10;0.10;;;;;;;;;;4180426;28;20052;-32
2022/02/04 15:13:31;;;;;;;0.10;0.10;;;;;;;;;;4180750;28;20060;-35
2022/02/04 15:15:32;;;;;;;0.25;0.20;;;;;;;;;;4166657;28;20057;-35
2022/02/04 15:17:34;;;;;;;0.15;0.15;;;;;;;;;;4172614;28;20083;-34
2022/02/04 15:19:36;;;;;;;0.32;0.22;;;;;;;;;;4180813;28;20065;-32
2022/02/04 15:21:42;;;;;;;0.15;0.10;;;;;;;;;;4180473;28;20071;-32
2022/02/04 15:23:47;;;;;;;0.17;0.17;;;;;;;;;;4178727;28;20056;-32
2022/02/04 15:25:52;;;;;;;0.25;0.10;;;;;;;;;;4177718;28;20057;-32
2022/02/04 15:29:55;;;;;;;0.40;0.20;;;;;;;;;;4179736;28;20056;-32
2022/02/04 15:31:59;;;;;;;0.20;0.20;;;;;;;;;;4179069;28;20057;-32
2022/02/04 15:34:01;;;;;;;0.35;0.10;;;;;;;;;;4180154;28;20053;-32
2022/02/04 15:36:03;;;;;;;0.30;0.10;;;;;;;;;;4179435;28;20430;-32
2022/02/04 15:38:04;;;;;;;0.40;0.10;;;;;;;;;;4180813;28;20106;-32
2022/02/04 15:40:06;;;;;;;0.32;0.10;;;;;;;;;;4180551;28;20065;-32
2022/02/04 15:42:10;;;;;;;0.10;0.10;;;;;;;;;;4178415;28;20378;-32
2022/02/04 15:44:23;;;;;;;0.98;0.13;;;;;;;;;;4178686;28;20060;-32
2022/02/04 15:53:32;;;;;;;0.33;0.20;;;;;;;;;;4180526;28;20091;-35
2022/02/04 15:59:57;;;;;;;0.17;0.17;;;;;;;;;;4177114;28;20061;-34
2022/02/04 16:02:45;;;;;;;0.10;0.10;;;;;;;;;;4172708;28;20480;-35
2022/02/04 16:04:25;;;;;;;0.10;0.10;;;;;;;;;;4170679;28;20056;-33
2022/02/04 16:06:26;;;;;;;0.30;0.10;;;;;;;;;;4178259;28;20053;-34
2022/02/04 16:08:27;;;;;;;0.10;0.10;;;;;;;;;;4179487;28;20493;-34
2022/02/04 16:10:48;;;;;;;0.85;0.10;;;;;;;;;;4178992;28;20045;-34
2022/02/04 16:12:57;;;;;;;0.10;0.10;;;;;;;;;;4177917;28;20362;-34
2022/02/04 16:15:01;;;;;;;0.10;0.10;;;;;;;;;;4178988;28;20451;-34
2022/02/04 16:17:40;;;;;;;0.10;0.10;;;;;;;;;;4179774;28;20480;-34
2022/02/04 16:19:34;;;;;;;0.15;0.15;;;;;;;;;;4179964;28;20061;-34
2022/02/04 16:21:43;;;;;;;0.15;0.10;;;;;;;;;;4180619;28;20107;-33
2022/02/04 16:30:12;;;;;;;0.05;0.05;;;;;;;;;;4179062;28;20049;-34
2022/02/04 16:32:13;;;;;;;0.55;0.20;;;;;;;;;;4179756;28;20065;-34
2022/02/04 16:34:15;;;;;;;0.20;0.10;;;;;;;;;;4180614;28;20061;-34
2022/02/04 16:36:20;;;;;;;0.22;0.22;;;;;;;;;;4179008;28;20053;-34
2022/02/04 16:38:22;;;;;;;0.10;0.10;;;;;;;;;;4180434;28;20102;-34
2022/02/04 16:40:23;;;;;;;0.10;0.10;;;;;;;;;;4180357;28;20108;-34
2022/02/04 16:42:24;;;;;;;0.47;0.20;;;;;;;;;;4180321;28;20099;-34
2022/02/04 16:44:25;;;;;;;0.20;0.10;;;;;;;;;;4180221;28;20061;-34
2022/02/04 16:46:26;;;;;;;0.10;0.10;;;;;;;;;;4179772;28;20101;-34
2022/02/04 16:48:28;;;;;;;0.25;0.10;;;;;;;;;;4180169;28;20064;-34
2022/02/04 16:50:30;;;;;;;0.10;0.10;;;;;;;;;;4180382;28;20064;-35
2022/02/04 16:52:31;;;;;;;0.10;0.10;;;;;;;;;;4180040;28;20512;-34
2022/02/04 16:54:35;;;;;;;0.10;0.10;;;;;;;;;;4180387;28;20087;-34
2022/02/04 16:56:37;;;;;;;0.15;0.10;;;;;;;;;;4180130;28;20053;-34
2022/02/04 16:58:38;;;;;;;0.20;0.20;;;;;;;;;;4179971;28;20056;-34
2022/02/04 17:00:39;;;;;;;0.28;0.17;;;;;;;;;;4180053;28;20119;-34
2022/02/04 17:02:41;;;;;;;0.20;0.20;;;;;;;;;;4181200;28;20138;-34
2022/02/04 17:04:42;;;;;;;0.10;0.10;;;;;;;;;;4181922;28;20075;-34
2022/02/04 17:06:46;;;;;;;0.82;0.10;;;;;;;;;;4183255;28;20079;-34
2022/02/04 17:08:53;;;;;;;0.10;0.10;;;;;;;;;;4183191;28;20057;-34
2022/02/04 17:10:55;;;;;;;0.10;0.10;;;;;;;;;;4182926;28;20060;-34
2022/02/04 17:13:00;;;;;;;0.00;0.00;;;;;;;;;;4183090;28;20095;-34
2022/02/04 17:15:02;;;;;;;0.10;0.10;;;;;;;;;;4183209;28;20114;-34
2022/02/04 17:17:05;;;;;;;0.17;0.10;;;;;;;;;;4182667;28;20053;-34
2022/02/04 17:19:07;;;;;;;0.52;0.22;;;;;;;;;;4183066;28;20400;-34
2022/02/04 17:21:08;;;;;;;0.40;0.28;;;;;;;;;;4148729;28;20088;-34
2022/02/04 17:23:12;;;;;;;0.10;0.10;;;;;;;;;;4183326;28;20106;-34
2022/02/04 17:25:13;;;;;;;0.10;0.10;;;;;;;;;;4183099;28;20052;-34
2022/02/04 17:27:15;;;;;;;0.10;0.10;;;;;;;;;;4164887;28;20113;-34
2022/02/04 17:29:16;;;;;;;0.10;0.10;;;;;;;;;;4183122;28;20056;-34
2022/02/04 17:31:18;;;;;;;0.10;0.10;;;;;;;;;;4182303;28;20059;-34
2022/02/04 17:33:19;;;;;;;0.45;0.13;;;;;;;;;;4183083;28;20052;-34
2022/02/04 17:35:24;;;;;;;0.20;0.15;;;;;;;;;;4182725;28;20404;-34
2022/02/04 17:37:25;;;;;;;0.10;0.10;;;;;;;;;;4182791;28;20108;-34
2022/02/04 17:39:27;;;;;;;0.35;0.17;;;;;;;;;;4182828;28;20057;-34
2022/02/04 17:41:28;;;;;;;0.28;0.10;;;;;;;;;;4182441;28;20053;-37
2022/02/04 17:43:30;;;;;;;0.40;0.13;;;;;;;;;;4182654;28;20095;-34
2022/02/04 17:45:31;;;;;;;0.20;0.10;;;;;;;;;;4182583;28;20619;-34
2022/02/04 17:47:33;;;;;;;1.85;0.28;;;;;;;;;;4182095;28;20057;-34
2022/02/04 17:49:45;;;;;;;0.17;0.10;;;;;;;;;;4164847;28;20054;-34
2022/02/04 17:51:58;;;;;;;0.10;0.10;;;;;;;;;;4182470;28;20094;-34
2022/02/04 17:54:03;;;;;;;0.80;0.10;;;;;;;;;;4181339;28;20053;-34
2022/02/04 17:56:18;;;;;;;0.10;0.10;;;;;;;;;;4181288;28;20053;-34
2022/02/04 17:58:31;;;;;;;0.25;0.20;;;;;;;;;;4182301;28;20065;-34
2022/02/04 18:05:21;;;;;;;0.20;0.10;;;;;;;;;;4182315;28;20057;-34
2022/02/04 18:07:24;;;;;;;0.20;0.10;;;;;;;;;;4182507;28;20118;-34
2022/02/04 18:09:26;;;;;;;0.10;0.10;;;;;;;;;;4182213;28;20130;-34
2022/02/04 18:11:27;;;;;;;0.00;0.00;;;;;;;;;;4182267;28;20075;-34
2022/02/04 18:13:29;;;;;;;0.10;0.10;;;;;;;;;;4182040;28;20083;-34
2022/02/04 18:15:30;;;;;;;0.10;0.10;;;;;;;;;;4182008;28;20440;-34
2022/02/04 18:17:32;;;;;;;0.60;0.20;;;;;;;;;;4181989;28;20095;-34
2022/02/04 18:19:34;;;;;;;0.13;0.10;;;;;;;;;;4182244;28;20114;-34
2022/02/04 18:21:35;;;;;;;0.00;0.00;;;;;;;;;;4164228;28;20119;-34
2022/02/04 18:23:36;;;;;;;0.08;0.08;;;;;;;;;;4181044;28;20087;-34
2022/02/04 18:25:37;;;;;;;0.15;0.10;;;;;;;;;;4181815;28;20056;-34
2022/02/04 18:27:39;;;;;;;0.10;0.10;;;;;;;;;;4180625;28;20060;-34
2022/02/04 18:29:45;;;;;;;0.10;0.10;;;;;;;;;;4181904;28;20505;-34
2022/02/04 18:31:46;;;;;;;1.17;0.20;;;;;;;;;;4180205;28;20410;-34
2022/02/04 18:33:47;;;;;;;0.00;0.00;;;;;;;;;;4180896;28;20069;-34